»·PEaware :: JBU532 KLGB-KSLC

JBU532 :: KLGB-KSLC

FLIGHT INFORMATION

Flight Status: Arrived
Operator:
JetBlue Airways
More flights by this operator :: More flights under this callsign
Pilot: Patricio R. (14780)
Aircraft: AIRBUS A320
(A320)
More flights by this aircraft type
Origin: KLGB Long Beach
United States
Destination: KSLC Salt Lake City Intl
United States
More flights between these airports :: More routes between these airports
Route: ZOOMM2 BEALE Q842 WINEN MLF DELTA5
File this flight plan on PilotEdge
Remarks: PBN / A1B1C1D1O1S1 DOF / 181004 REG / N320SB EET / KZLC0040 OPR / JBU PER / C RMK / TCAS SIMBRIEF
Altitude:
(Current/Filed)
35,000ft
Speed:
(Current/Filed)
464kts
Departed: 03-Oct-18 05:29 PM
Arrived: 03-Oct-18 06:48 PM
Distance/Time
Traveled:
511nm/1:19
Distance/Time
To Go:
Arrived

Flight Plot

Page will automatically refresh every two minutes.

Flight plan parsing failed; only flown route is shown


Map Options




Map Legend


Flown Route
Filed Route
Departure Airport
Arrival Airport
Navaid (VOR, NDB)
Fix

Horizontal Profiles

Position Reports

Time Latitude Longitude Heading Altitude Ground
Speed
03-Oct-18 17:12 33.818123 -118.146154 90 43ft 0kts
03-Oct-18 17:13 33.818123 -118.146154 90 43ft 0kts
03-Oct-18 17:14 33.818123 -118.146154 90 43ft 0kts
03-Oct-18 17:15 33.818123 -118.146154 90 43ft 0kts
03-Oct-18 17:16 33.818123 -118.146154 90 43ft 0kts
03-Oct-18 17:17 33.818123 -118.146154 90 43ft 0kts
03-Oct-18 17:18 33.818123 -118.146154 90 43ft 0kts
03-Oct-18 17:19 33.818123 -118.146154 90 43ft 0kts
03-Oct-18 17:20 33.818123 -118.146154 90 43ft 0kts
03-Oct-18 17:21 33.818123 -118.146154 90 43ft 0kts
03-Oct-18 17:22 33.818123 -118.146154 89 43ft 0kts
03-Oct-18 17:23 33.818122 -118.146732 90 44ft 2kts
03-Oct-18 17:24 33.818352 -118.147002 180 44ft 0kts
03-Oct-18 17:25 33.818352 -118.147002 180 44ft 0kts
03-Oct-18 17:26 33.818352 -118.147002 180 44ft 0kts
03-Oct-18 17:27 33.816215 -118.147005 180 43ft 11kts
03-Oct-18 17:28 33.813511 -118.144298 135 38ft 13kts
03-Oct-18 17:29 33.811936 -118.144217 299 38ft 11kts
03-Oct-18 17:30 33.813233 -118.146039 263 40ft 13kts
03-Oct-18 17:31 33.816381 -118.149596 315 45ft 107kts
03-Oct-18 17:32 33.847738 -118.190396 285 2337ft 183kts
03-Oct-18 17:33 33.808568 -118.234354 193 3013ft 257kts
03-Oct-18 17:34 33.739407 -118.238853 143 4373ft 265kts
03-Oct-18 17:35 33.716143 -118.155732 97 7222ft 278kts
03-Oct-18 17:36 33.756347 -118.078213 37 10053ft 309kts
03-Oct-18 17:37 33.831358 -118.011784 37 11429ft 373kts
03-Oct-18 17:38 33.918682 -117.933458 37 12880ft 410kts
03-Oct-18 17:39 34.011011 -117.849030 38 14738ft 426kts
03-Oct-18 17:40 34.089691 -117.774917 46 16157ft 438kts
03-Oct-18 17:41 34.180960 -117.641549 52 17948ft 452kts
03-Oct-18 17:42 34.247569 -117.542491 52 19123ft 462kts
03-Oct-18 17:43 34.342974 -117.400109 53 20687ft 474kts
03-Oct-18 17:44 34.423881 -117.279046 53 23287ft 449kts
03-Oct-18 17:45 34.487105 -117.184097 54 25597ft 427kts
03-Oct-18 17:46 34.575220 -117.052592 53 27227ft 441kts
03-Oct-18 17:47 34.641756 -116.955875 54 28121ft 456kts
03-Oct-18 17:48 34.724251 -116.835321 54 29160ft 472kts
03-Oct-18 17:49 34.808655 -116.711555 55 30303ft 482kts
03-Oct-18 17:50 34.897636 -116.586658 51 31372ft 494kts
03-Oct-18 17:51 34.990420 -116.462549 53 32493ft 499kts
03-Oct-18 17:52 35.083524 -116.337541 54 33473ft 504kts
03-Oct-18 17:53 35.177134 -116.211392 54 34148ft 511kts
03-Oct-18 17:54 35.272798 -116.082011 54 34838ft 515kts
03-Oct-18 17:55 35.369824 -115.950200 54 34962ft 532kts
03-Oct-18 17:56 35.470165 -115.813434 54 34947ft 547kts
03-Oct-18 17:57 35.560504 -115.689888 54 34932ft 547kts
03-Oct-18 17:58 35.661636 -115.550976 54 34933ft 547kts
03-Oct-18 17:59 35.762702 -115.411541 54 34936ft 548kts
03-Oct-18 18:00 35.851694 -115.288284 55 34939ft 547kts
03-Oct-18 18:01 35.952289 -115.148395 54 34927ft 547kts
03-Oct-18 18:02 36.053053 -115.007682 53 34893ft 549kts
03-Oct-18 18:03 36.153892 -114.866303 52 34884ft 549kts
03-Oct-18 18:04 36.281009 -114.760673 28 34891ft 558kts
03-Oct-18 18:05 36.417303 -114.670489 28 34877ft 557kts
03-Oct-18 18:06 36.553733 -114.579575 28 34873ft 558kts
03-Oct-18 18:07 36.689937 -114.488453 28 34880ft 558kts
03-Oct-18 18:08 36.821753 -114.387604 33 34920ft 558kts
03-Oct-18 18:09 36.952884 -114.284541 33 34958ft 557kts
03-Oct-18 18:10 37.083163 -114.181709 34 34984ft 556kts
03-Oct-18 18:11 37.212912 -114.078882 34 34967ft 552kts
03-Oct-18 18:12 37.342148 -113.976027 34 34939ft 551kts
03-Oct-18 18:13 37.471027 -113.873042 34 34945ft 551kts
03-Oct-18 18:14 37.599996 -113.769470 34 34974ft 552kts
03-Oct-18 18:15 37.728919 -113.665595 34 35134ft 552kts
03-Oct-18 18:16 37.858141 -113.561028 34 35160ft 553kts
03-Oct-18 18:17 37.980842 -113.446237 45 35160ft 549kts
03-Oct-18 18:18 38.094067 -113.317667 45 35152ft 549kts
03-Oct-18 18:19 38.206913 -113.189041 45 35069ft 546kts
03-Oct-18 18:20 38.319352 -113.060301 45 35050ft 546kts
03-Oct-18 18:21 38.451090 -112.964654 21 35081ft 553kts
03-Oct-18 18:22 38.592635 -112.889402 21 35092ft 552kts
03-Oct-18 18:23 38.733327 -112.813966 21 34844ft 550kts
03-Oct-18 18:24 38.874016 -112.738205 21 33801ft 548kts
03-Oct-18 18:25 39.001404 -112.669306 21 31237ft 553kts
03-Oct-18 18:26 39.109635 -112.610562 21 29176ft 548kts
03-Oct-18 18:27 39.241421 -112.538771 21 26264ft 546kts
03-Oct-18 18:28 39.383969 -112.478575 12 24081ft 533kts
03-Oct-18 18:29 39.527017 -112.431033 12 24053ft 533kts
03-Oct-18 18:30 39.670086 -112.383326 12 24041ft 533kts
03-Oct-18 18:31 39.810974 -112.336174 13 22000ft 516kts
03-Oct-18 18:32 39.946630 -112.290592 13 19681ft 493kts
03-Oct-18 18:33 40.075869 -112.246974 14 17355ft 470kts
03-Oct-18 18:34 40.198882 -112.205269 14 15063ft 446kts
03-Oct-18 18:35 40.311581 -112.166971 14 14188ft 392kts
03-Oct-18 18:36 40.410463 -112.133265 14 13494ft 345kts
03-Oct-18 18:37 40.498031 -112.103334 14 12860ft 306kts
03-Oct-18 18:38 40.576162 -112.082098 1 12318ft 270kts
03-Oct-18 18:39 40.649691 -112.080039 353 11240ft 262kts
03-Oct-18 18:40 40.722336 -112.088492 354 11033ft 263kts
03-Oct-18 18:41 40.794002 -112.096902 354 10246ft 258kts
03-Oct-18 18:42 40.864867 -112.105303 354 9177ft 254kts
03-Oct-18 18:43 40.933636 -112.113473 354 8373ft 241kts
03-Oct-18 18:44 40.972563 -112.058344 83 7528ft 224kts
03-Oct-18 18:45 40.941044 -112.002104 148 6808ft 180kts
03-Oct-18 18:46 40.898076 -111.987634 174 6024ft 158kts
03-Oct-18 18:47 40.854826 -111.982464 175 5203ft 155kts
03-Oct-18 18:48 40.812151 -111.977488 174 4356ft 153kts
03-Oct-18 18:49 40.783965 -111.974197 174 4236ft 44kts
03-Oct-18 18:50 40.782430 -111.976203 354 4236ft 19kts
03-Oct-18 18:51 40.785363 -111.977589 252 4236ft 2kts

Navigation Log

Ident Type
Flight plan parsing failed, navigation log unavailable